Time;durP1;ratioP1;P1;durP2;ratioP2;P2;SDS_P1;SDS_P2;PMS_P1;PMS_P2;Temp;Humidity;BMP_temperature;BMP_pressure;BME280_temperature;BME280_humidity;BME280_pressure;Samples;Min_cycle;Max_cycle;Signal;HPM_P1;HPM_P2
2023/05/22 00:01:06;;;;;;;34.13;18.03;;;;;;;-145.18;100.00;46660.41;5041854;28;20422;-62
2023/05/22 00:03:32;;;;;;;28.33;17.60;;;;;;;-145.18;100.00;46660.41;5017154;28;20065;-62
2023/05/22 00:05:59;;;;;;;29.10;17.43;;;;;;;-145.18;100.00;46660.41;5016998;28;20498;-62
2023/05/22 00:08:25;;;;;;;35.20;17.83;;;;;;;-145.18;100.00;46660.41;5034521;28;20501;-62
2023/05/22 00:10:51;;;;;;;34.10;19.30;;;;;;;-145.18;100.00;46660.41;5017062;28;20042;-62
2023/05/22 00:13:16;;;;;;;30.30;17.87;;;;;;;-145.18;100.00;46660.41;5034649;28;20494;-62
2023/05/22 00:15:42;;;;;;;32.27;18.00;;;;;;;-145.18;100.00;46660.41;5035787;28;20033;-62
2023/05/22 00:18:07;;;;;;;31.47;18.67;;;;;;;-145.18;100.00;46660.41;5034617;28;20038;-62
2023/05/22 00:20:37;;;;;;;39.70;20.03;;;;;;;-145.18;100.00;46660.41;5024336;28;20092;-62
2023/05/22 00:23:12;;;;;;;37.53;20.23;;;;;;;-145.18;100.00;46660.41;5054471;28;20029;-62
2023/05/22 00:25:37;;;;;;;33.83;18.80;;;;;;;-145.18;100.00;46660.41;5037758;28;20518;-62
2023/05/22 00:28:03;;;;;;;38.90;20.63;;;;;;;-145.18;100.00;46660.41;5054306;28;20124;-63
2023/05/22 00:30:29;;;;;;;38.13;20.43;;;;;;;-145.18;100.00;46660.41;5036686;28;20057;-62
2023/05/22 00:32:55;;;;;;;35.17;19.53;;;;;;;-145.18;100.00;46660.41;5034412;28;20116;-62
2023/05/22 00:35:21;;;;;;;33.63;19.90;;;;;;;-145.18;100.00;46660.41;5049511;28;20086;-62
2023/05/22 00:37:46;;;;;;;34.07;19.63;;;;;;;-145.18;100.00;46660.41;5054071;28;20029;-62
2023/05/22 00:40:14;;;;;;;33.27;18.60;;;;;;;-145.18;100.00;46660.41;5038795;28;20036;-62
2023/05/22 00:42:40;;;;;;;32.80;19.73;;;;;;;-145.18;100.00;46660.41;5033513;28;20037;-62
2023/05/22 00:45:06;;;;;;;41.47;20.43;;;;;;;-145.18;100.00;46660.41;5034161;28;20114;-63
2023/05/22 00:47:32;;;;;;;34.90;19.43;;;;;;;-145.18;100.00;46660.41;5035011;28;20037;-62
2023/05/22 00:49:58;;;;;;;37.30;19.60;;;;;;;-145.18;100.00;46660.41;5051700;28;20039;-62
2023/05/22 00:52:24;;;;;;;35.97;19.30;;;;;;;-145.18;100.00;46660.41;5033213;28;20132;-63
2023/05/22 00:54:49;;;;;;;37.13;20.63;;;;;;;-145.18;100.00;46660.41;5015877;28;20120;-63
2023/05/22 00:57:16;;;;;;;41.70;19.70;;;;;;;-145.18;100.00;46660.41;5050411;28;20508;-62
2023/05/22 00:59:42;;;;;;;41.10;19.73;;;;;;;-145.18;100.00;46660.41;5053623;28;20120;-62
2023/05/22 01:02:08;;;;;;;35.60;19.03;;;;;;;-145.18;100.00;46660.41;5051683;28;20032;-63
2023/05/22 01:04:34;;;;;;;34.87;18.70;;;;;;;-145.18;100.00;46660.41;5050361;28;20417;-63
2023/05/22 01:07:01;;;;;;;30.50;17.50;;;;;;;-145.18;100.00;46660.41;5036120;28;20033;-62
2023/05/22 01:09:28;;;;;;;34.17;17.83;;;;;;;-145.18;100.00;46660.41;5053667;28;20029;-63
2023/05/22 01:12:04;;;;;;;33.50;18.13;;;;;;;-145.18;100.00;46660.41;5053575;28;20059;-63
2023/05/22 01:14:58;;;;;;;33.43;18.00;;;;;;;-145.18;100.00;46660.41;5053513;28;20060;-62
2023/05/22 01:17:44;;;;;;;35.23;18.53;;;;;;;-145.18;100.00;46660.41;5042544;28;20037;-63
2023/05/22 01:20:13;;;;;;;31.02;18.13;;;;;;;-145.18;100.00;46660.41;5050320;28;20257;-63
2023/05/22 01:22:57;;;;;;;32.50;18.87;;;;;;;-145.18;100.00;46660.41;5053310;28;20106;-63
2023/05/22 01:25:28;;;;;;;35.00;19.87;;;;;;;-145.18;100.00;46660.41;5041674;28;20044;-63
2023/05/22 01:28:03;;;;;;;34.60;18.87;;;;;;;-145.18;100.00;46660.41;5053297;28;20043;-62
2023/05/22 01:30:35;;;;;;;28.50;17.87;;;;;;;-145.18;100.00;46660.41;5051484;28;20089;-62
2023/05/22 01:33:02;;;;;;;36.83;19.23;;;;;;;-145.18;100.00;46660.41;5053172;28;20040;-63
2023/05/22 01:35:30;;;;;;;36.37;18.73;;;;;;;-145.18;100.00;46660.41;5043153;28;20028;-63
2023/05/22 01:37:57;;;;;;;34.70;20.03;;;;;;;-145.18;100.00;46660.41;5032928;28;20402;-63
2023/05/22 01:40:22;;;;;;;35.73;18.93;;;;;;;-145.18;100.00;46660.41;5033345;28;20404;-63
2023/05/22 01:42:48;;;;;;;38.93;20.17;;;;;;;-145.18;100.00;46660.41;5034226;28;20478;-62
2023/05/22 01:45:13;;;;;;;29.37;17.93;;;;;;;-145.18;100.00;46660.41;5032899;28;20034;-63
2023/05/22 01:47:39;;;;;;;30.67;17.70;;;;;;;-145.18;100.00;46660.41;5032622;28;20455;-63
2023/05/22 01:50:05;;;;;;;32.27;19.20;;;;;;;-145.18;100.00;46660.41;5040122;28;20037;-63
2023/05/22 01:52:43;;;;;;;36.60;18.93;;;;;;;-145.18;100.00;46660.41;5021330;28;20084;-63
2023/05/22 01:55:12;;;;;;;31.57;18.67;;;;;;;-145.18;100.00;46660.41;5032944;28;20022;-62
2023/05/22 01:57:55;;;;;;;31.07;18.03;;;;;;;-145.18;100.00;46660.41;5052448;28;20386;-62
2023/05/22 02:00:23;;;;;;;31.93;18.17;;;;;;;-145.18;100.00;46660.41;5052746;28;20095;-63
2023/05/22 02:02:55;;;;;;;38.03;19.03;;;;;;;-145.18;100.00;46660.41;5052566;28;20025;-63
2023/05/22 02:05:22;;;;;;;27.80;17.47;;;;;;;-145.18;100.00;46660.41;5052552;28;20017;-63
2023/05/22 02:07:48;;;;;;;39.13;19.97;;;;;;;-145.18;100.00;46660.41;5050034;28;20025;-63
2023/05/22 02:10:15;;;;;;;36.50;18.37;;;;;;;-145.18;100.00;46660.41;5052271;28;20474;-63
2023/05/22 02:12:41;;;;;;;32.27;18.27;;;;;;;-145.18;100.00;46660.41;5036968;28;20032;-63
2023/05/22 02:15:08;;;;;;;34.67;19.13;;;;;;;-145.18;100.00;46660.41;5032270;28;20025;-63
2023/05/22 02:17:40;;;;;;;34.40;18.00;;;;;;;-145.18;100.00;46660.41;5045072;28;20028;-63
2023/05/22 02:20:13;;;;;;;28.70;17.50;;;;;;;-145.18;100.00;46660.41;5019044;28;20066;-63
2023/05/22 02:22:40;;;;;;;28.57;17.33;;;;;;;-145.18;100.00;46660.41;5049093;28;20044;-63
2023/05/22 02:25:08;;;;;;;35.03;16.80;;;;;;;-145.18;100.00;46660.41;5037735;28;20044;-63
2023/05/22 02:27:33;;;;;;;32.13;17.27;;;;;;;-145.18;100.00;46660.41;5033130;28;20037;-62
2023/05/22 02:29:59;;;;;;;36.60;19.53;;;;;;;-145.18;100.00;46660.41;5032277;28;20029;-63
2023/05/22 02:32:24;;;;;;;33.40;17.83;;;;;;;-145.18;100.00;46660.41;5032090;28;20064;-62
2023/05/22 02:34:50;;;;;;;32.20;17.03;;;;;;;-145.18;100.00;46660.41;5043581;28;20112;-63
2023/05/22 02:37:15;;;;;;;28.90;17.60;;;;;;;-145.18;100.00;46660.41;5052087;28;20478;-63
2023/05/22 02:39:40;;;;;;;33.97;17.90;;;;;;;-145.18;100.00;46660.41;5037187;28;20406;-62
2023/05/22 02:42:06;;;;;;;28.87;16.20;;;;;;;-145.18;100.00;46660.41;5032121;28;20069;-63
2023/05/22 02:44:31;;;;;;;31.57;19.47;;;;;;;-145.18;100.00;46660.41;5032469;28;20036;-63
2023/05/22 02:46:57;;;;;;;30.03;16.50;;;;;;;-145.18;100.00;46660.41;5032313;28;20044;-63
2023/05/22 02:49:22;;;;;;;39.70;17.97;;;;;;;-145.18;100.00;46660.41;5032151;28;20463;-63
2023/05/22 02:51:47;;;;;;;33.80;17.97;;;;;;;-145.18;100.00;46660.41;5014704;28;20026;-63
2023/05/22 02:54:14;;;;;;;26.83;17.47;;;;;;;-145.18;100.00;46660.41;5041423;28;20029;-62
2023/05/22 02:56:41;;;;;;;29.67;18.17;;;;;;;-145.18;100.00;46660.41;5031858;28;20036;-63
2023/05/22 02:59:06;;;;;;;31.20;17.77;;;;;;;-145.18;100.00;46660.41;5043642;28;20020;-62
2023/05/22 03:01:33;;;;;;;39.70;19.33;;;;;;;-145.18;100.00;46660.41;5033733;28;20559;-63
2023/05/22 03:03:58;;;;;;;31.63;18.40;;;;;;;-145.18;100.00;46660.41;5051943;28;20033;-62
2023/05/22 03:06:24;;;;;;;33.20;17.73;;;;;;;-145.18;100.00;46660.41;5039201;28;20056;-62
2023/05/22 03:08:49;;;;;;;34.50;17.63;;;;;;;-145.18;100.00;46633.06;5039873;28;20052;-63
2023/05/22 03:11:15;;;;;;;34.67;18.40;;;;;;;-145.18;100.00;46660.41;5035898;28;20033;-63
2023/05/22 03:13:40;;;;;;;35.03;19.93;;;;;;;-145.18;100.00;46660.41;5029566;28;20493;-63
2023/05/22 03:16:06;;;;;;;38.03;20.90;;;;;;;-145.18;100.00;46660.41;5035757;28;20447;-62
2023/05/22 03:18:31;;;;;;;34.53;18.67;;;;;;;-145.18;100.00;46660.41;5040109;28;20025;-63
2023/05/22 03:20:56;;;;;;;32.57;18.43;;;;;;;-145.18;100.00;46660.41;5037495;28;20033;-63
2023/05/22 03:23:23;;;;;;;40.53;19.37;;;;;;;-145.18;100.00;46633.06;5055738;28;20463;-63
2023/05/22 03:25:50;;;;;;;35.07;19.53;;;;;;;-145.18;100.00;46633.06;5052626;28;20128;-62
2023/05/22 03:28:15;;;;;;;37.27;19.27;;;;;;;-145.18;100.00;46660.41;5039752;28;20048;-62
2023/05/22 03:30:40;;;;;;;37.60;20.03;;;;;;;-145.18;100.00;46660.41;5050163;28;20383;-63
2023/05/22 03:33:06;;;;;;;45.70;22.20;;;;;;;-145.18;100.00;46660.41;5039925;28;20026;-63
2023/05/22 03:35:31;;;;;;;37.40;19.83;;;;;;;-145.18;100.00;46660.41;5041852;28;20452;-63
2023/05/22 03:37:56;;;;;;;43.87;21.07;;;;;;;-145.18;100.00;46660.41;5023016;28;20115;-63
2023/05/22 03:40:22;;;;;;;45.20;21.33;;;;;;;-145.18;100.00;46660.41;5046164;28;20029;-63
2023/05/22 03:42:48;;;;;;;42.77;19.93;;;;;;;-145.18;100.00;46660.41;5043533;28;20024;-63
2023/05/22 03:45:13;;;;;;;32.63;19.67;;;;;;;-145.18;100.00;46660.41;5047461;28;20083;-63
2023/05/22 03:47:39;;;;;;;48.00;21.80;;;;;;;-145.18;100.00;46629.13;5036642;28;20079;-63
2023/05/22 03:50:04;;;;;;;38.60;19.47;;;;;;;-145.18;100.00;46660.41;5035201;28;20025;-63
2023/05/22 03:52:30;;;;;;;35.80;20.73;;;;;;;-145.18;100.00;46660.41;5035128;28;20036;-63
2023/05/22 03:54:55;;;;;;;39.40;19.80;;;;;;;-145.18;100.00;46660.41;5017344;28;20129;-63
2023/05/22 03:57:20;;;;;;;47.70;21.00;;;;;;;-145.18;100.00;46660.41;5034480;28;20030;-63
2023/05/22 03:59:46;;;;;;;32.77;19.93;;;;;;;-145.18;100.00;46629.13;5034299;28;20030;-63
2023/05/22 04:02:11;;;;;;;37.77;19.83;;;;;;;-145.18;100.00;46660.41;5052709;28;20663;-62
2023/05/22 04:04:39;;;;;;;40.33;21.33;;;;;;;-145.18;100.00;46660.41;5037156;28;20113;-63
2023/05/22 04:07:07;;;;;;;39.67;20.93;;;;;;;-145.18;100.00;46631.09;5017654;28;20037;-63
2023/05/22 04:09:34;;;;;;;37.33;19.33;;;;;;;-145.18;100.00;46660.41;5034267;28;20033;-63
2023/05/22 04:12:00;;;;;;;34.43;20.47;;;;;;;-145.18;100.00;46660.41;5046304;28;20033;-63
2023/05/22 04:14:26;;;;;;;41.20;20.47;;;;;;;-145.18;100.00;46629.13;5034456;28;20510;-63
2023/05/22 04:16:51;;;;;;;42.23;20.97;;;;;;;-145.18;100.00;46660.41;5033483;28;20022;-63
2023/05/22 04:19:17;;;;;;;38.03;18.77;;;;;;;-145.18;100.00;46629.13;5034233;28;20494;-63
2023/05/22 04:21:42;;;;;;;34.73;18.73;;;;;;;-145.18;100.00;46660.41;5023766;28;20040;-63
2023/05/22 04:24:09;;;;;;;39.30;20.37;;;;;;;-145.18;100.00;46625.22;5017245;28;20037;-63
2023/05/22 04:26:36;;;;;;;32.23;18.53;;;;;;;-145.18;100.00;46660.41;5016833;28;20033;-63
2023/05/22 04:29:02;;;;;;;37.60;19.37;;;;;;;-145.18;100.00;46660.41;5035532;28;20044;-63
2023/05/22 04:31:28;;;;;;;36.33;18.90;;;;;;;-145.18;100.00;46660.41;5037620;28;20025;-63
2023/05/22 04:33:54;;;;;;;32.00;18.97;;;;;;;-145.18;100.00;46627.19;5034103;28;20174;-63
2023/05/22 04:36:24;;;;;;;36.83;18.63;;;;;;;-145.18;100.00;46660.41;5033731;28;20037;-63
2023/05/22 04:38:50;;;;;;;33.10;17.20;;;;;;;-145.18;100.00;46660.41;5042826;28;20108;-63
2023/05/22 04:41:16;;;;;;;32.83;18.77;;;;;;;-145.18;100.00;46625.22;5024185;28;20585;-63
2023/05/22 04:43:47;;;;;;;31.63;17.77;;;;;;;-145.18;100.00;46627.19;5027591;28;20037;-63
2023/05/22 04:46:16;;;;;;;31.57;18.10;;;;;;;-145.18;100.00;46623.28;5035084;28;20550;-63
2023/05/22 04:48:41;;;;;;;33.27;17.87;;;;;;;-145.18;100.00;46625.22;5017052;28;20037;-63
2023/05/22 04:51:06;;;;;;;34.10;17.90;;;;;;;-145.18;100.00;46629.13;5034004;28;20044;-63
2023/05/22 04:53:32;;;;;;;39.97;20.40;;;;;;;-145.18;100.00;46625.22;5033770;28;20032;-63
2023/05/22 04:55:58;;;;;;;41.43;20.33;;;;;;;-145.18;100.00;46629.13;5034219;28;20033;-63
2023/05/22 04:58:26;;;;;;;33.20;18.93;;;;;;;-145.18;100.00;46625.22;5033906;28;20033;-63
2023/05/22 05:00:52;;;;;;;44.33;20.57;;;;;;;-145.18;100.00;46627.19;5038008;28;20487;-63
2023/05/22 05:03:18;;;;;;;41.30;19.13;;;;;;;-145.18;100.00;46627.19;5022428;28;20065;-63
2023/05/22 05:05:44;;;;;;;42.53;20.13;;;;;;;-145.18;100.00;46627.19;5041149;28;20025;-63
2023/05/22 05:08:10;;;;;;;46.80;21.13;;;;;;;-145.18;100.00;46629.13;5039895;28;20144;-63
2023/05/22 05:10:35;;;;;;;35.20;19.33;;;;;;;-145.18;100.00;46629.13;5041759;28;20043;-63
2023/05/22 05:13:01;;;;;;;39.13;18.97;;;;;;;-145.18;100.00;46627.19;5042857;28;20482;-63
2023/05/22 05:15:26;;;;;;;39.93;19.40;;;;;;;-145.18;100.00;46633.06;5039554;28;20025;-63
2023/05/22 05:17:52;;;;;;;39.80;20.40;;;;;;;-145.18;100.00;46629.13;5041884;28;20111;-63
2023/05/22 05:20:17;;;;;;;46.47;20.73;;;;;;;-145.18;100.00;46629.13;5040041;28;20048;-63
2023/05/22 05:22:44;;;;;;;33.70;19.87;;;;;;;-145.18;100.00;46629.13;5042753;28;20099;-63
2023/05/22 05:25:10;;;;;;;42.97;19.97;;;;;;;-145.18;100.00;46627.19;5041781;28;20021;-63
2023/05/22 05:27:36;;;;;;;35.23;19.77;;;;;;;-145.18;100.00;46629.13;5040039;28;20048;-62
2023/05/22 05:30:01;;;;;;;42.37;20.30;;;;;;;-145.18;100.00;46627.19;5042928;28;20119;-63
2023/05/22 05:32:27;;;;;;;44.50;21.23;;;;;;;-145.18;100.00;46625.22;5041834;28;20029;-63
2023/05/22 05:34:52;;;;;;;45.53;21.57;;;;;;;-145.18;100.00;46627.19;5038306;28;20114;-63
2023/05/22 05:37:17;;;;;;;47.03;21.20;;;;;;;-145.18;100.00;46627.19;5040113;28;20029;-62
2023/05/22 05:39:43;;;;;;;44.60;21.50;;;;;;;-145.18;100.00;46623.28;5016404;28;20041;-62
2023/05/22 05:42:08;;;;;;;46.53;22.07;;;;;;;-145.18;100.00;46627.19;5036817;28;20033;-63
2023/05/22 05:44:33;;;;;;;45.73;23.27;;;;;;;-145.18;100.00;46623.28;5023987;28;20033;-63
2023/05/22 05:46:59;;;;;;;43.80;21.53;;;;;;;-145.18;100.00;46617.41;5053052;28;20040;-63
2023/05/22 05:49:25;;;;;;;46.40;23.00;;;;;;;-145.18;100.00;46617.41;5052996;28;20048;-63
2023/05/22 05:51:51;;;;;;;44.83;22.80;;;;;;;-145.18;100.00;46617.41;5041533;28;20044;-63
2023/05/22 05:54:16;;;;;;;51.33;23.60;;;;;;;-145.18;100.00;46617.41;5015048;28;20113;-63
2023/05/22 05:56:42;;;;;;;54.03;23.73;;;;;;;-145.18;100.00;46615.47;5032846;28;20108;-63
2023/05/22 05:59:08;;;;;;;53.77;25.07;;;;;;;-145.18;100.00;46619.38;5014999;28;20401;-63
2023/05/22 06:01:34;;;;;;;55.90;25.43;;;;;;;-145.18;100.00;46617.41;5015208;28;20104;-63
2023/05/22 06:04:01;;;;;;;61.73;26.57;;;;;;;-145.18;100.00;46617.41;5032423;28;20116;-63
2023/05/22 06:06:29;;;;;;;62.53;27.53;;;;;;;-145.18;100.00;46615.47;5032512;28;20110;-63
2023/05/22 06:08:55;;;;;;;58.47;27.57;;;;;;;-145.18;100.00;46621.31;5032420;28;20029;-63
2023/05/22 06:11:21;;;;;;;60.70;27.13;;;;;;;-145.18;100.00;46617.41;5039504;28;20079;-63
2023/05/22 06:13:46;;;;;;;66.53;29.27;;;;;;;-145.18;100.00;46613.50;5052542;28;20025;-63
2023/05/22 06:16:12;;;;;;;74.17;30.20;;;;;;;-145.18;100.00;46617.41;5052172;28;20025;-63
2023/05/22 06:18:37;;;;;;;58.67;27.77;;;;;;;-145.18;100.00;46613.50;5052278;28;20040;-64
2023/05/22 06:21:04;;;;;;;67.93;28.80;;;;;;;-145.18;100.00;46615.47;5052818;28;20139;-63
2023/05/22 06:23:29;;;;;;;69.70;29.43;;;;;;;-145.18;100.00;46615.47;5052436;28;20417;-63
2023/05/22 06:25:55;;;;;;;68.40;28.63;;;;;;;-145.18;100.00;46613.50;5034163;28;20037;-63
2023/05/22 06:28:20;;;;;;;75.70;30.20;;;;;;;-145.18;100.00;46617.41;5055161;28;20082;-63
2023/05/22 06:30:45;;;;;;;66.80;29.27;;;;;;;-145.18;100.00;46617.41;5054607;28;20044;-63
2023/05/22 06:33:11;;;;;;;78.53;31.17;;;;;;;-145.18;100.00;46609.59;5033905;28;20036;-63
2023/05/22 06:35:36;;;;;;;79.20;31.40;;;;;;;-145.18;100.00;46613.50;5052322;28;20542;-62
2023/05/22 06:38:02;;;;;;;74.70;32.80;;;;;;;-145.18;100.00;46617.41;5046124;28;20042;-63
2023/05/22 06:40:27;;;;;;;68.30;29.50;;;;;;;-145.18;100.00;46615.47;5013792;28;20045;-63
2023/05/22 06:42:53;;;;;;;74.00;31.67;;;;;;;-145.18;100.00;46605.69;5032342;28;20053;-63
2023/05/22 06:45:18;;;;;;;76.33;32.03;;;;;;;-145.18;100.00;46611.56;5032111;28;20071;-63
2023/05/22 06:47:44;;;;;;;77.13;31.50;;;;;;;-145.18;100.00;46615.47;5032270;28;20041;-63
2023/05/22 06:50:10;;;;;;;75.50;30.47;;;;;;;-145.18;100.00;46613.50;5032207;28;20029;-63
2023/05/22 06:52:37;;;;;;;73.13;31.53;;;;;;;-145.18;100.00;46613.50;5041858;28;20040;-62
2023/05/22 06:55:04;;;;;;;69.70;30.70;;;;;;;-145.18;100.00;46611.56;5052125;28;20029;-63
2023/05/22 06:57:33;;;;;;;69.13;29.80;;;;;;;-145.18;100.00;46617.41;5051771;28;20035;-63
2023/05/22 06:59:59;;;;;;;69.27;29.97;;;;;;;-145.18;100.00;46617.41;5052211;28;20047;-63
2023/05/22 07:02:25;;;;;;;75.20;30.43;;;;;;;-145.18;100.00;46615.47;5051639;28;20064;-63
2023/05/22 07:04:52;;;;;;;69.53;30.70;;;;;;;-145.18;100.00;46619.38;5043915;28;20064;-63
2023/05/22 07:07:17;;;;;;;69.57;29.87;;;;;;;-145.18;100.00;46621.31;5055824;28;20141;-63
2023/05/22 07:09:43;;;;;;;72.67;29.40;;;;;;;-145.18;100.00;46621.31;5051294;28;20037;-63
2023/05/22 07:12:08;;;;;;;60.13;27.83;;;;;;;-145.18;100.00;46619.38;5052004;28;20079;-63
2023/05/22 07:14:34;;;;;;;71.87;29.20;;;;;;;-145.18;100.00;46623.28;5052031;28;20099;-63
2023/05/22 07:16:59;;;;;;;61.43;28.67;;;;;;;-145.18;100.00;46625.22;5051521;28;20025;-63
2023/05/22 07:19:25;;;;;;;67.60;26.47;;;;;;;-145.18;100.00;46625.22;5057893;28;20062;-63
2023/05/22 07:21:50;;;;;;;61.67;27.30;;;;;;;-145.18;100.00;46625.22;5022928;28;20109;-63
2023/05/22 07:24:16;;;;;;;63.20;26.70;;;;;;;-145.18;100.00;46629.13;5051904;28;20099;-63
2023/05/22 07:26:45;;;;;;;53.40;25.37;;;;;;;-145.18;100.00;46627.19;5033657;28;20112;-63
2023/05/22 07:29:11;;;;;;;50.70;23.60;;;;;;;-145.18;100.00;46633.06;5059763;28;20093;-63
2023/05/22 07:31:37;;;;;;;48.83;24.23;;;;;;;-145.18;100.00;46631.09;5071790;28;20082;-63
2023/05/22 07:34:03;;;;;;;48.03;23.20;;;;;;;-145.18;100.00;46633.06;5071778;28;20020;-63
2023/05/22 07:36:28;;;;;;;48.97;24.30;;;;;;;-145.18;100.00;46635.00;5071766;28;20457;-63
2023/05/22 07:38:54;;;;;;;50.53;23.67;;;;;;;-145.18;100.00;46638.91;5053140;28;20033;-63
2023/05/22 07:41:21;;;;;;;47.70;23.33;;;;;;;-145.18;100.00;46638.91;5053578;28;20025;-63
2023/05/22 07:43:46;;;;;;;49.67;22.90;;;;;;;-145.18;100.00;46638.91;5071222;28;20481;-63
2023/05/22 07:46:12;;;;;;;42.60;22.33;;;;;;;-145.18;100.00;46644.78;5059696;28;20082;-63
2023/05/22 07:48:37;;;;;;;46.80;22.13;;;;;;;-145.18;100.00;46638.91;5038203;28;20501;-63
2023/05/22 07:51:03;;;;;;;46.83;22.60;;;;;;;-145.18;100.00;46646.72;5054343;28;20086;-63
2023/05/22 07:53:28;;;;;;;42.80;21.23;;;;;;;-145.18;100.00;46648.69;5056929;28;20025;-63
2023/05/22 07:55:54;;;;;;;43.83;21.77;;;;;;;-145.18;100.00;46648.69;5062374;28;20030;-63
2023/05/22 07:58:19;;;;;;;38.63;19.80;;;;;;;-145.18;100.00;46652.59;5054945;28;20025;-64
2023/05/22 08:00:45;;;;;;;35.30;19.03;;;;;;;-145.18;100.00;46650.63;5036850;28;20171;-63
2023/05/22 08:03:10;;;;;;;35.47;18.93;;;;;;;-145.18;100.00;46652.59;5054738;28;20029;-63
2023/05/22 08:05:36;;;;;;;42.90;18.67;;;;;;;-145.18;100.00;46654.53;5036622;28;20082;-63
2023/05/22 08:08:02;;;;;;;36.33;19.30;;;;;;;-145.18;100.00;46658.44;5048773;28;20139;-63
2023/05/22 08:10:28;;;;;;;33.90;18.83;;;;;;;-145.18;100.00;46662.34;5074437;28;20482;-63
2023/05/22 08:12:53;;;;;;;35.37;19.63;;;;;;;-145.18;100.00;46664.31;5074767;28;20032;-62
2023/05/22 08:15:19;;;;;;;35.47;18.03;;;;;;;-145.18;100.00;46658.44;5074493;28;20118;-63
2023/05/22 08:17:44;;;;;;;33.57;18.87;;;;;;;-145.18;100.00;46664.31;5056356;28;20032;-63
2023/05/22 08:20:10;;;;;;;37.60;18.73;;;;;;;-145.18;100.00;46662.34;5074111;28;20049;-63
2023/05/22 08:22:38;;;;;;;29.80;19.67;;;;;;;-145.18;100.00;46664.31;5074296;28;20032;-62
2023/05/22 08:25:03;;;;;;;36.77;17.93;;;;;;;-145.18;100.00;46670.16;5074460;28;20107;-63
2023/05/22 08:27:29;;;;;;;39.77;19.07;;;;;;;-145.18;100.00;46668.22;5066707;28;20561;-63
2023/05/22 08:29:55;;;;;;;38.10;18.97;;;;;;;-145.18;100.00;46668.22;5054191;28;20654;-63
2023/05/22 08:32:20;;;;;;;36.57;18.23;;;;;;;-145.18;100.00;46672.13;5037241;28;20029;-63
2023/05/22 08:34:46;;;;;;;33.40;17.50;;;;;;;-145.18;100.00;46676.03;5054274;28;20029;-63
2023/05/22 08:37:15;;;;;;;34.63;19.07;;;;;;;-145.18;100.00;46670.16;5054459;28;20025;-63
2023/05/22 08:39:40;;;;;;;34.30;18.33;;;;;;;-145.18;100.00;46674.06;5069117;28;20028;-63
2023/05/22 08:42:06;;;;;;;33.27;19.33;;;;;;;-145.18;100.00;46676.03;5074147;28;20032;-63
2023/05/22 08:44:32;;;;;;;39.07;19.43;;;;;;;-145.18;100.00;46676.03;5074205;28;20104;-62
2023/05/22 08:47:00;;;;;;;35.87;19.10;;;;;;;-145.18;100.00;46676.03;5056357;28;20533;-63
2023/05/22 08:49:26;;;;;;;30.10;18.07;;;;;;;-145.18;100.00;46677.97;5059807;28;20029;-62
2023/05/22 08:52:02;;;;;;;32.27;18.13;;;;;;;-145.18;100.00;46676.03;5051281;28;20508;-63
2023/05/22 08:54:28;;;;;;;33.70;17.90;;;;;;;-145.18;100.00;46674.06;5053902;28;20025;-63
2023/05/22 08:56:54;;;;;;;36.50;18.97;;;;;;;-145.18;100.00;46676.03;5053827;28;20020;-63
2023/05/22 08:59:20;;;;;;;35.80;18.40;;;;;;;-145.18;100.00;46676.03;5053788;28;20029;-63
2023/05/22 09:01:47;;;;;;;38.20;20.90;;;;;;;-145.18;100.00;46672.13;5047535;28;20120;-63
2023/05/22 09:04:12;;;;;;;34.20;18.63;;;;;;;-145.18;100.00;46674.06;5057577;28;20028;-63
2023/05/22 09:06:37;;;;;;;36.20;19.17;;;;;;;-145.18;100.00;46676.03;5073401;28;20434;-63
2023/05/22 09:09:03;;;;;;;34.23;18.80;;;;;;;-145.18;100.00;46674.06;5055529;28;20032;-63
2023/05/22 09:11:28;;;;;;;32.23;17.80;;;;;;;-145.18;100.00;46674.06;5073679;28;20040;-62
2023/05/22 09:14:07;;;;;;;31.93;18.23;;;;;;;-145.18;100.00;46677.97;5055095;28;20367;-63
2023/05/22 09:16:42;;;;;;;33.73;18.40;;;;;;;-145.18;100.00;46664.31;5073294;28;20024;-63
2023/05/22 09:19:07;;;;;;;35.20;19.20;;;;;;;-145.18;100.00;46654.53;5073488;28;20047;-63
2023/05/22 09:21:36;;;;;;;35.83;20.23;;;;;;;-145.18;100.00;46593.97;5055217;28;20501;-63
2023/05/22 09:24:01;;;;;;;37.07;19.10;;;;;;;-145.18;100.00;46560.78;5073216;28;20036;-63
2023/05/22 09:26:31;;;;;;;35.67;19.10;;;;;;;-145.18;100.00;46549.06;5055205;28;20037;-63
2023/05/22 09:28:58;;;;;;;35.47;19.63;;;;;;;-145.18;100.00;46545.16;5073252;28;20029;-63
2023/05/22 09:31:23;;;;;;;33.70;18.93;;;;;;;-145.18;100.00;46549.06;5073088;28;20028;-63
2023/05/22 09:33:49;;;;;;;33.33;19.33;;;;;;;-145.18;100.00;46545.16;5058390;28;20033;-63
2023/05/22 09:36:16;;;;;;;40.27;21.60;;;;;;;-145.18;100.00;46547.09;5032947;28;20034;-63
2023/05/22 09:38:41;;;;;;;32.67;19.03;;;;;;;-145.18;100.00;46547.09;5036286;28;20139;-63
2023/05/22 09:41:06;;;;;;;33.23;19.37;;;;;;;-145.18;100.00;46547.09;5035580;28;20111;-63
2023/05/22 09:43:32;;;;;;;29.87;18.70;;;;;;;-145.18;100.00;46549.06;5034687;28;20115;-63
2023/05/22 09:46:02;;;;;;;29.63;20.00;;;;;;;-145.18;100.00;46558.81;5052818;28;20021;-63
2023/05/22 09:48:28;;;;;;;30.87;18.63;;;;;;;-145.18;100.00;46556.88;5035169;28;20393;-63
2023/05/22 09:50:54;;;;;;;25.33;17.17;;;;;;;-145.18;100.00;46562.72;5052776;28;20124;-63
2023/05/22 09:53:26;;;;;;;29.23;17.07;;;;;;;-145.18;100.00;46558.81;5052918;28;20528;-63
2023/05/22 09:55:53;;;;;;;32.57;17.60;;;;;;;-145.18;100.00;46549.06;5052951;28;20032;-63
2023/05/22 09:58:19;;;;;;;37.77;18.03;;;;;;;-145.18;100.00;46558.81;5050684;28;20068;-63
2023/05/22 10:00:47;;;;;;;26.27;18.30;;;;;;;-145.18;100.00;46558.81;5015449;28;20057;-63
2023/05/22 10:03:17;;;;;;;32.10;17.97;;;;;;;-145.18;100.00;46560.78;5032910;28;20036;-63
2023/05/22 10:05:49;;;;;;;29.27;16.53;;;;;;;-145.18;100.00;46549.06;5032244;28;20033;-63
2023/05/22 10:08:19;;;;;;;28.17;16.87;;;;;;;-145.18;100.00;46556.88;5032420;28;20486;-63
2023/05/22 10:10:49;;;;;;;30.37;18.33;;;;;;;-145.18;100.00;46551.00;5032759;28;20029;-63
2023/05/22 10:13:15;;;;;;;32.53;17.83;;;;;;;-145.18;100.00;46552.97;5032403;28;20029;-63
2023/05/22 10:15:41;;;;;;;31.97;17.97;;;;;;;-145.18;100.00;46543.19;5032717;28;20021;-64
2023/05/22 10:18:07;;;;;;;34.10;18.00;;;;;;;-145.18;100.00;46558.81;5032163;28;20029;-64
2023/05/22 10:20:33;;;;;;;35.20;19.53;;;;;;;-145.18;100.00;46551.00;5031872;28;20053;-63
2023/05/22 10:23:01;;;;;;;25.30;15.97;;;;;;;-145.18;100.00;46556.88;5017353;28;20074;-64
2023/05/22 10:25:27;;;;;;;23.37;16.53;;;;;;;-145.18;100.00;46545.16;5052089;28;20047;-63
2023/05/22 10:27:53;;;;;;;29.60;16.73;;;;;;;-145.18;100.00;46568.59;5034279;28;20482;-64
2023/05/22 10:30:41;;;;;;;27.43;18.07;;;;;;;-145.18;100.00;46568.59;5051614;28;20056;-63
2023/05/22 10:33:18;;;;;;;28.77;18.60;;;;;;;-145.18;100.00;46552.97;5051813;28;20039;-62
2023/05/22 10:35:51;;;;;;;28.50;17.13;;;;;;;-145.18;100.00;46554.91;5051886;28;20040;-63
2023/05/22 10:38:45;;;;;;;27.20;17.43;;;;;;;-145.18;100.00;46552.97;5031719;28;20037;-63
2023/05/22 10:41:11;;;;;;;25.57;16.47;;;;;;;-145.18;100.00;46562.72;5032440;28;20037;-62
2023/05/22 10:43:43;;;;;;;29.07;17.80;;;;;;;-145.18;100.00;46558.81;5014224;28;20053;-62
2023/05/22 10:46:11;;;;;;;30.67;18.23;;;;;;;-145.18;100.00;46564.69;5040661;28;20032;-62
2023/05/22 10:48:38;;;;;;;26.70;17.90;;;;;;;-145.18;100.00;46551.00;5051539;28;20060;-62
2023/05/22 10:51:05;;;;;;;26.47;18.00;;;;;;;-145.18;100.00;46545.16;5051981;28;20437;-62
2023/05/22 10:53:32;;;;;;;30.17;17.10;;;;;;;-145.18;100.00;46549.06;5044334;28;20475;-62